Cowden, Illinois
Current Conditions -  °F | °C
As of 5:55 AM on Sunday 21 Dec 2014 (Local Time) from K1H2 Reporting Station
Overcast Overcast  
Wind Chill: -3°   Ceiling: 2700
Heat Index:   Visibility: 7mi
Dew Point: -3°   Wind: 6mph
Humidity: 79%   Direction: 120°ESE
Pressure: 30.28"   Gusts: NA
Location:  39.25°N, 88.86°W
Report Text: K1H2 211155Z AUTO 12005KT 7SM OVC027 00/M03 A3028 RMK AO2 T00001033 10005 20000
Loading
Personal Weather Stations






























Interactive Weather Map New forecast layout! Learn more

10-Day Weather Forecast

Advertisements
Track Severe Weather on mobile